ELY361 LLBG-LOWW
Flight info
| Callsign | ELY361 |
|---|---|
| Flight time | 3h 15m |
| Altitude | 36000 |
| Route | SUVAS DCT TEZAK L324 SAFTA DCT MAROS DCT LUTIG DCT EXELA UN127 LMO DCT EVIVI L863 OKANA DCT DONIV DCT PARAK DCT BALUX DCT TORNO DCT NATEX NATEX2W |
| Aircraft | B738/M-SDE2E3FGHIJ1LORVWXY/LB1 |
Departure
| Time | 2026-04-25 09:27 |
|---|---|
| Airport | Ben Gurion International Airport (LLBG) |
Arrival
| Time | 2026-04-25 12:42 |
|---|---|
| Airport | Vienna International Airport (LOWW) |
| Time | Latitude | Longitude | Altitude | Speed | Heading |
|---|---|---|---|---|---|
| 2026-04-25 09:12 | 32.00121 | 34.87493 | 119 ft | 0 kts | 301° |
| 2026-04-25 09:18 | 32.00115 | 34.87505 | 114 ft | 4 kts | 302° |
| 2026-04-25 09:18 | 32.00103 | 34.87527 | 118 ft | 4 kts | 308° |
| 2026-04-25 09:18 | 32.00084 | 34.87545 | 115 ft | 4 kts | 349° |
| 2026-04-25 09:19 | 32.00059 | 34.87541 | 116 ft | 4 kts | 28° |
| 2026-04-25 09:19 | 32.00062 | 34.87543 | 116 ft | 4 kts | 31° |
| 2026-04-25 09:19 | 32.00085 | 34.87559 | 116 ft | 3 kts | 31° |
| 2026-04-25 09:19 | 32.00088 | 34.87562 | 116 ft | 0 kts | 31° |
| 2026-04-25 09:21 | 32.00103 | 34.87573 | 119 ft | 5 kts | 31° |
| 2026-04-25 09:21 | 32.00155 | 34.87610 | 117 ft | 12 kts | 31° |
| 2026-04-25 09:22 | 32.00243 | 34.87673 | 117 ft | 17 kts | 31° |
| 2026-04-25 09:22 | 32.00361 | 34.87757 | 117 ft | 22 kts | 31° |
| 2026-04-25 09:22 | 32.00504 | 34.87859 | 116 ft | 25 kts | 31° |
| 2026-04-25 09:22 | 32.00645 | 34.87960 | 117 ft | 23 kts | 31° |
| 2026-04-25 09:23 | 32.00781 | 34.88058 | 118 ft | 22 kts | 31° |
| 2026-04-25 09:23 | 32.00928 | 34.88165 | 118 ft | 27 kts | 32° |
| 2026-04-25 09:23 | 32.01084 | 34.88278 | 119 ft | 25 kts | 31° |
| 2026-04-25 09:23 | 32.01229 | 34.88383 | 117 ft | 24 kts | 34° |
| 2026-04-25 09:24 | 32.01351 | 34.88508 | 118 ft | 23 kts | 49° |
| 2026-04-25 09:24 | 32.01439 | 34.88659 | 116 ft | 22 kts | 63° |
| 2026-04-25 09:24 | 32.01492 | 34.88823 | 118 ft | 20 kts | 76° |
| 2026-04-25 09:24 | 32.01516 | 34.88974 | 116 ft | 17 kts | 79° |
| 2026-04-25 09:25 | 32.01537 | 34.89105 | 119 ft | 15 kts | 79° |
| 2026-04-25 09:25 | 32.01589 | 34.89162 | 119 ft | 11 kts | 360° |
| 2026-04-25 09:25 | 32.01663 | 34.89148 | 118 ft | 11 kts | 350° |
| 2026-04-25 09:25 | 32.01731 | 34.89133 | 115 ft | 7 kts | 347° |
| 2026-04-25 09:26 | 32.01747 | 34.89094 | 115 ft | 6 kts | 261° |
| 2026-04-25 09:26 | 32.01730 | 34.88983 | 118 ft | 39 kts | 259° |
| 2026-04-25 09:26 | 32.01638 | 34.88384 | 120 ft | 108 kts | 260° |
| 2026-04-25 09:26 | 32.01467 | 34.87274 | 120 ft | 165 kts | 260° |
| 2026-04-25 09:27 | 32.01241 | 34.85828 | 526 ft | 180 kts | 259° |
| 2026-04-25 09:27 | 32.01000 | 34.84521 | 1429 ft | 171 kts | 256° |
| 2026-04-25 09:27 | 32.00722 | 34.83129 | 2141 ft | 177 kts | 256° |
| 2026-04-25 09:27 | 32.00426 | 34.81717 | 2978 ft | 176 kts | 255° |
| 2026-04-25 09:28 | 32.00120 | 34.80266 | 3587 ft | 190 kts | 254° |
| 2026-04-25 09:28 | 31.99777 | 34.78630 | 3831 ft | 219 kts | 254° |
| 2026-04-25 09:28 | 31.99395 | 34.76814 | 4083 ft | 241 kts | 254° |
| 2026-04-25 09:28 | 31.99209 | 34.74770 | 4367 ft | 267 kts | 279° |
| 2026-04-25 09:29 | 31.99809 | 34.72662 | 5092 ft | 276 kts | 290° |
| 2026-04-25 09:29 | 32.00493 | 34.70534 | 5915 ft | 278 kts | 289° |
| 2026-04-25 09:29 | 32.01168 | 34.68380 | 6670 ft | 281 kts | 287° |
| 2026-04-25 09:29 | 32.01745 | 34.66162 | 7416 ft | 283 kts | 283° |
| 2026-04-25 09:30 | 32.02251 | 34.63938 | 8182 ft | 285 kts | 282° |
| 2026-04-25 09:30 | 32.02753 | 34.61666 | 8942 ft | 288 kts | 282° |
| 2026-04-25 09:30 | 32.03262 | 34.59371 | 9703 ft | 290 kts | 282° |
| 2026-04-25 09:30 | 32.03781 | 34.57054 | 10361 ft | 296 kts | 282° |
| 2026-04-25 09:31 | 32.04328 | 34.54616 | 10561 ft | 319 kts | 282° |
| 2026-04-25 09:31 | 32.04910 | 34.52035 | 10732 ft | 340 kts | 282° |
| 2026-04-25 09:31 | 32.05540 | 34.49263 | 11040 ft | 355 kts | 282° |
| 2026-04-25 09:31 | 32.06190 | 34.46420 | 11627 ft | 360 kts | 282° |
| 2026-04-25 09:32 | 32.06849 | 34.43551 | 12336 ft | 362 kts | 282° |
| 2026-04-25 09:32 | 32.07501 | 34.40707 | 13022 ft | 364 kts | 282° |
| 2026-04-25 09:32 | 32.08168 | 34.37795 | 13701 ft | 367 kts | 282° |
| 2026-04-25 09:32 | 32.08835 | 34.34878 | 14285 ft | 370 kts | 282° |
| 2026-04-25 09:33 | 32.09506 | 34.31937 | 14907 ft | 372 kts | 281° |
| 2026-04-25 09:33 | 32.10181 | 34.28978 | 15531 ft | 374 kts | 281° |
| 2026-04-25 09:33 | 32.10851 | 34.26033 | 16137 ft | 376 kts | 281° |
| 2026-04-25 09:33 | 32.11531 | 34.23040 | 16730 ft | 379 kts | 281° |
| 2026-04-25 09:34 | 32.12217 | 34.20019 | 17309 ft | 382 kts | 281° |
| 2026-04-25 09:34 | 32.12907 | 34.16978 | 17891 ft | 385 kts | 281° |
| 2026-04-25 09:34 | 32.13602 | 34.13909 | 18430 ft | 387 kts | 281° |
| 2026-04-25 09:34 | 32.14301 | 34.10821 | 18932 ft | 390 kts | 281° |
| 2026-04-25 09:35 | 32.15002 | 34.07720 | 19433 ft | 392 kts | 281° |
| 2026-04-25 09:35 | 32.15707 | 34.04596 | 19922 ft | 395 kts | 281° |
| 2026-04-25 09:35 | 32.16442 | 34.01457 | 20399 ft | 399 kts | 284° |
| 2026-04-25 09:35 | 32.17500 | 33.98447 | 20855 ft | 406 kts | 293° |
| 2026-04-25 09:36 | 32.19004 | 33.95585 | 21341 ft | 412 kts | 301° |
| 2026-04-25 09:36 | 32.20674 | 33.92811 | 21800 ft | 415 kts | 302° |
| 2026-04-25 09:36 | 32.22379 | 33.90040 | 22244 ft | 418 kts | 302° |
| 2026-04-25 09:36 | 32.24095 | 33.87255 | 22684 ft | 421 kts | 302° |
| 2026-04-25 09:37 | 32.25823 | 33.84436 | 23122 ft | 423 kts | 302° |
| 2026-04-25 09:37 | 32.27548 | 33.81604 | 23547 ft | 426 kts | 302° |
| 2026-04-25 09:37 | 32.29277 | 33.78748 | 23901 ft | 428 kts | 301° |
| 2026-04-25 09:37 | 32.30987 | 33.75912 | 24276 ft | 429 kts | 301° |
| 2026-04-25 09:38 | 32.32721 | 33.73028 | 24649 ft | 431 kts | 301° |
| 2026-04-25 09:38 | 32.34459 | 33.70131 | 25004 ft | 433 kts | 301° |
| 2026-04-25 09:38 | 32.36204 | 33.67219 | 25355 ft | 434 kts | 301° |
| 2026-04-25 09:38 | 32.37956 | 33.64292 | 25693 ft | 436 kts | 301° |
| 2026-04-25 09:39 | 32.39715 | 33.61351 | 26027 ft | 438 kts | 301° |
| 2026-04-25 09:39 | 32.41475 | 33.58407 | 26344 ft | 440 kts | 301° |
| 2026-04-25 09:39 | 32.43246 | 33.55442 | 26676 ft | 442 kts | 301° |
| 2026-04-25 09:40 | 32.46792 | 33.49499 | 27306 ft | 445 kts | 300° |
| 2026-04-25 09:40 | 32.48581 | 33.46498 | 27613 ft | 447 kts | 300° |
| 2026-04-25 09:40 | 32.50378 | 33.43480 | 27910 ft | 448 kts | 300° |
| 2026-04-25 09:40 | 32.52181 | 33.40450 | 28205 ft | 450 kts | 300° |
| 2026-04-25 09:41 | 32.53969 | 33.37444 | 28490 ft | 452 kts | 300° |
| 2026-04-25 09:41 | 32.55788 | 33.34381 | 28773 ft | 453 kts | 300° |
| 2026-04-25 09:41 | 32.57453 | 33.31577 | 29018 ft | 455 kts | 300° |
| 2026-04-25 09:41 | 32.59277 | 33.28504 | 29414 ft | 454 kts | 300° |
| 2026-04-25 09:42 | 32.60481 | 33.26475 | 29718 ft | 452 kts | 300° |
| 2026-04-25 09:42 | 32.62693 | 33.22745 | 30245 ft | 449 kts | 300° |
| 2026-04-25 09:42 | 32.64454 | 33.19772 | 30566 ft | 447 kts | 299° |
| 2026-04-25 09:42 | 32.66250 | 33.16735 | 30881 ft | 446 kts | 299° |
| 2026-04-25 09:43 | 32.68037 | 33.13710 | 31216 ft | 445 kts | 299° |
| 2026-04-25 09:43 | 32.69934 | 33.10804 | 31561 ft | 448 kts | 307° |
| 2026-04-25 09:43 | 32.72211 | 33.08248 | 31932 ft | 451 kts | 312° |
| 2026-04-25 09:43 | 32.74572 | 33.05798 | 32265 ft | 450 kts | 313° |
| 2026-04-25 09:44 | 32.76938 | 33.03373 | 32564 ft | 449 kts | 313° |
| 2026-04-25 09:44 | 32.79302 | 33.00947 | 32851 ft | 448 kts | 313° |
| 2026-04-25 09:44 | 32.81621 | 32.98551 | 33165 ft | 446 kts | 312° |
| 2026-04-25 09:44 | 32.83955 | 32.96122 | 33473 ft | 445 kts | 312° |
| 2026-04-25 09:45 | 32.86275 | 32.93692 | 33755 ft | 444 kts | 312° |
| 2026-04-25 09:45 | 32.88592 | 32.91255 | 34025 ft | 442 kts | 311° |
| 2026-04-25 09:45 | 32.90894 | 32.88827 | 34266 ft | 441 kts | 311° |
| 2026-04-25 09:45 | 32.93191 | 32.86401 | 34480 ft | 441 kts | 311° |
| 2026-04-25 09:46 | 32.95485 | 32.83975 | 34694 ft | 440 kts | 311° |
| 2026-04-25 09:46 | 32.97776 | 32.81551 | 34909 ft | 440 kts | 311° |
| 2026-04-25 09:46 | 33.00032 | 32.79163 | 35128 ft | 439 kts | 311° |
| 2026-04-25 09:46 | 33.02314 | 32.76746 | 35327 ft | 438 kts | 311° |
| 2026-04-25 09:47 | 33.04592 | 32.74331 | 35522 ft | 438 kts | 311° |
| 2026-04-25 09:47 | 33.06869 | 32.71916 | 35726 ft | 437 kts | 311° |
| 2026-04-25 09:47 | 33.09148 | 32.69498 | 35924 ft | 436 kts | 311° |
| 2026-04-25 09:47 | 33.11425 | 32.67078 | 35946 ft | 439 kts | 311° |
| 2026-04-25 09:48 | 33.15963 | 32.62252 | 35952 ft | 438 kts | 311° |
| 2026-04-25 09:48 | 33.20505 | 32.57419 | 35957 ft | 435 kts | 311° |
| 2026-04-25 09:49 | 33.24938 | 32.52694 | 35961 ft | 433 kts | 311° |
| 2026-04-25 09:49 | 33.29433 | 32.47894 | 35958 ft | 432 kts | 311° |
| 2026-04-25 09:50 | 33.33883 | 32.43135 | 35961 ft | 432 kts | 311° |
| 2026-04-25 09:50 | 33.38367 | 32.38332 | 35969 ft | 433 kts | 311° |
| 2026-04-25 09:51 | 33.42860 | 32.33512 | 35972 ft | 434 kts | 311° |
| 2026-04-25 09:51 | 33.47381 | 32.28656 | 35972 ft | 436 kts | 312° |
| 2026-04-25 09:52 | 33.51914 | 32.23780 | 35972 ft | 439 kts | 312° |
| 2026-04-25 09:52 | 33.56454 | 32.18890 | 35973 ft | 441 kts | 312° |
| 2026-04-25 09:53 | 33.61008 | 32.13978 | 35973 ft | 443 kts | 312° |
| 2026-04-25 09:53 | 33.65604 | 32.09014 | 35970 ft | 444 kts | 312° |
| 2026-04-25 09:54 | 33.70210 | 32.04031 | 35969 ft | 445 kts | 312° |
| 2026-04-25 09:54 | 33.74793 | 31.99066 | 35971 ft | 445 kts | 313° |
| 2026-04-25 09:55 | 33.78632 | 31.94902 | 35954 ft | 445 kts | 313° |
| 2026-04-25 09:55 | 33.83982 | 31.89089 | 35970 ft | 444 kts | 313° |
| 2026-04-25 09:56 | 33.87809 | 31.84924 | 35974 ft | 443 kts | 313° |
| 2026-04-25 09:56 | 33.92363 | 31.79961 | 35973 ft | 443 kts | 313° |
| 2026-04-25 09:57 | 33.96930 | 31.74976 | 35965 ft | 442 kts | 313° |
| 2026-04-25 09:57 | 34.01465 | 31.70019 | 35974 ft | 441 kts | 313° |
| 2026-04-25 09:58 | 34.05988 | 31.65067 | 35963 ft | 440 kts | 313° |
| 2026-04-25 09:58 | 34.10534 | 31.60083 | 35971 ft | 440 kts | 313° |
| 2026-04-25 09:59 | 34.15070 | 31.55101 | 35971 ft | 440 kts | 313° |
| 2026-04-25 09:59 | 34.19585 | 31.50137 | 35973 ft | 440 kts | 313° |
| 2026-04-25 10:00 | 34.24094 | 31.45170 | 35967 ft | 440 kts | 313° |
| 2026-04-25 10:00 | 34.28636 | 31.40160 | 35960 ft | 441 kts | 313° |
| 2026-04-25 10:01 | 34.33143 | 31.35181 | 35975 ft | 441 kts | 313° |
| 2026-04-25 10:01 | 34.37688 | 31.30152 | 35973 ft | 441 kts | 313° |
| 2026-04-25 10:02 | 34.42226 | 31.25122 | 35970 ft | 442 kts | 313° |
| 2026-04-25 10:02 | 34.46742 | 31.20111 | 35969 ft | 443 kts | 313° |
| 2026-04-25 10:03 | 34.51297 | 31.15047 | 35968 ft | 443 kts | 313° |
| 2026-04-25 10:03 | 34.55815 | 31.10018 | 35965 ft | 443 kts | 313° |
| 2026-04-25 10:04 | 34.60369 | 31.04941 | 35967 ft | 444 kts | 313° |
| 2026-04-25 10:04 | 34.64917 | 30.99861 | 35969 ft | 444 kts | 313° |
| 2026-04-25 10:05 | 34.69472 | 30.94766 | 35968 ft | 444 kts | 313° |
| 2026-04-25 10:05 | 34.73992 | 30.89704 | 35969 ft | 444 kts | 313° |
| 2026-04-25 10:06 | 34.78541 | 30.84599 | 35974 ft | 444 kts | 313° |
| 2026-04-25 10:06 | 34.83056 | 30.79526 | 35968 ft | 443 kts | 313° |
| 2026-04-25 10:07 | 34.87594 | 30.74418 | 35968 ft | 443 kts | 313° |
| 2026-04-25 10:07 | 34.92114 | 30.69322 | 35973 ft | 443 kts | 313° |
| 2026-04-25 10:08 | 34.96618 | 30.64237 | 35970 ft | 443 kts | 313° |
| 2026-04-25 10:08 | 35.01144 | 30.59119 | 35970 ft | 443 kts | 312° |
| 2026-04-25 10:09 | 35.05646 | 30.54020 | 35973 ft | 442 kts | 312° |
| 2026-04-25 10:09 | 35.10169 | 30.48888 | 35980 ft | 442 kts | 312° |
| 2026-04-25 10:10 | 35.14665 | 30.43779 | 35979 ft | 443 kts | 312° |
| 2026-04-25 10:10 | 35.19177 | 30.38645 | 35982 ft | 443 kts | 312° |
| 2026-04-25 10:11 | 35.23661 | 30.33534 | 35980 ft | 443 kts | 312° |
| 2026-04-25 10:11 | 35.28173 | 30.28383 | 35983 ft | 443 kts | 312° |
| 2026-04-25 10:12 | 35.32688 | 30.23219 | 35985 ft | 443 kts | 312° |
| 2026-04-25 10:13 | 35.39435 | 30.15488 | 35989 ft | 444 kts | 312° |
| 2026-04-25 10:13 | 35.43927 | 30.10331 | 35986 ft | 444 kts | 312° |
| 2026-04-25 10:14 | 35.48440 | 30.05140 | 35983 ft | 444 kts | 312° |
| 2026-04-25 10:14 | 35.52962 | 29.99933 | 35990 ft | 445 kts | 312° |
| 2026-04-25 10:15 | 35.57617 | 29.94895 | 35987 ft | 447 kts | 315° |
| 2026-04-25 10:15 | 35.62359 | 29.89990 | 35992 ft | 447 kts | 315° |
| 2026-04-25 10:16 | 35.67110 | 29.85032 | 35988 ft | 447 kts | 315° |
| 2026-04-25 10:16 | 35.71808 | 29.80077 | 35991 ft | 447 kts | 314° |
| 2026-04-25 10:17 | 35.76527 | 29.75080 | 35989 ft | 447 kts | 314° |
| 2026-04-25 10:17 | 35.81220 | 29.70101 | 35991 ft | 446 kts | 314° |
| 2026-04-25 10:18 | 35.85914 | 29.65115 | 35991 ft | 446 kts | 314° |
| 2026-04-25 10:18 | 35.90615 | 29.60115 | 35991 ft | 446 kts | 314° |
| 2026-04-25 10:19 | 35.95326 | 29.55096 | 35988 ft | 446 kts | 314° |
| 2026-04-25 10:19 | 36.00077 | 29.50199 | 35991 ft | 446 kts | 316° |
| 2026-04-25 10:20 | 36.04900 | 29.45344 | 35989 ft | 446 kts | 316° |
| 2026-04-25 10:20 | 36.09684 | 29.40495 | 35993 ft | 446 kts | 316° |
| 2026-04-25 10:21 | 36.14485 | 29.35599 | 35988 ft | 446 kts | 316° |
| 2026-04-25 10:21 | 36.19243 | 29.30735 | 35992 ft | 445 kts | 315° |
| 2026-04-25 10:22 | 36.23998 | 29.25777 | 35992 ft | 445 kts | 315° |
| 2026-04-25 10:22 | 36.28699 | 29.20851 | 35991 ft | 445 kts | 315° |
| 2026-04-25 10:23 | 36.33443 | 29.15885 | 35991 ft | 445 kts | 315° |
| 2026-04-25 10:23 | 36.38133 | 29.10945 | 35990 ft | 444 kts | 315° |
| 2026-04-25 10:24 | 36.42863 | 29.05948 | 35986 ft | 445 kts | 315° |
| 2026-04-25 10:24 | 36.47552 | 29.00989 | 36005 ft | 444 kts | 315° |
| 2026-04-25 10:25 | 36.52272 | 28.95989 | 36004 ft | 444 kts | 315° |
| 2026-04-25 10:25 | 36.56959 | 28.91016 | 36017 ft | 444 kts | 314° |
| 2026-04-25 10:26 | 36.61664 | 28.86015 | 36019 ft | 444 kts | 314° |
| 2026-04-25 10:26 | 36.66340 | 28.81038 | 36030 ft | 444 kts | 314° |
| 2026-04-25 10:27 | 36.71050 | 28.76025 | 36027 ft | 444 kts | 315° |
| 2026-04-25 10:27 | 36.75768 | 28.71035 | 36023 ft | 444 kts | 315° |
| 2026-04-25 10:28 | 36.80451 | 28.66077 | 36025 ft | 444 kts | 315° |
| 2026-04-25 10:28 | 36.85163 | 28.61074 | 36021 ft | 444 kts | 314° |
| 2026-04-25 10:29 | 36.89858 | 28.56079 | 36006 ft | 444 kts | 314° |
| 2026-04-25 10:29 | 36.94546 | 28.51082 | 36013 ft | 443 kts | 314° |
| 2026-04-25 10:30 | 36.99237 | 28.46075 | 36016 ft | 441 kts | 314° |
| 2026-04-25 10:30 | 37.03907 | 28.41080 | 36017 ft | 440 kts | 314° |
| 2026-04-25 10:31 | 37.08535 | 28.36120 | 36011 ft | 439 kts | 314° |
| 2026-04-25 10:31 | 37.13148 | 28.31083 | 36014 ft | 438 kts | 314° |
| 2026-04-25 10:32 | 37.17723 | 28.26095 | 36016 ft | 437 kts | 314° |
| 2026-04-25 10:32 | 37.22362 | 28.21131 | 36014 ft | 436 kts | 314° |
| 2026-04-25 10:33 | 37.26957 | 28.16203 | 36023 ft | 436 kts | 314° |
| 2026-04-25 10:33 | 37.31574 | 28.11226 | 36016 ft | 436 kts | 314° |
| 2026-04-25 10:34 | 37.36157 | 28.06225 | 36007 ft | 436 kts | 314° |
| 2026-04-25 10:34 | 37.40715 | 28.01230 | 36014 ft | 435 kts | 314° |
| 2026-04-25 10:35 | 37.45293 | 27.96208 | 36010 ft | 436 kts | 314° |
| 2026-04-25 10:35 | 37.49870 | 27.91181 | 36012 ft | 436 kts | 314° |
| 2026-04-25 10:36 | 37.54429 | 27.86167 | 35991 ft | 436 kts | 314° |
| 2026-04-25 10:36 | 37.58990 | 27.81144 | 35996 ft | 437 kts | 314° |
| 2026-04-25 10:37 | 37.63582 | 27.76077 | 35981 ft | 437 kts | 314° |
| 2026-04-25 10:37 | 37.68144 | 27.71034 | 35980 ft | 436 kts | 314° |
| 2026-04-25 10:38 | 37.72716 | 27.65971 | 35974 ft | 436 kts | 314° |
| 2026-04-25 10:38 | 37.77243 | 27.60951 | 35978 ft | 434 kts | 314° |
| 2026-04-25 10:39 | 37.81779 | 27.55911 | 35980 ft | 433 kts | 314° |
| 2026-04-25 10:39 | 37.86298 | 27.50881 | 35991 ft | 432 kts | 314° |
| 2026-04-25 10:40 | 37.90798 | 27.45882 | 35992 ft | 431 kts | 314° |
| 2026-04-25 10:40 | 37.94576 | 27.41740 | 35999 ft | 431 kts | 314° |
| 2026-04-25 10:41 | 37.99861 | 27.35947 | 35991 ft | 431 kts | 314° |
| 2026-04-25 10:41 | 38.03639 | 27.31791 | 36001 ft | 431 kts | 314° |
| 2026-04-25 10:42 | 38.08185 | 27.26778 | 35995 ft | 432 kts | 314° |
| 2026-04-25 10:42 | 38.12713 | 27.21775 | 36001 ft | 433 kts | 314° |
| 2026-04-25 10:43 | 38.17270 | 27.16732 | 35992 ft | 434 kts | 315° |
| 2026-04-25 10:43 | 38.21811 | 27.11697 | 36000 ft | 434 kts | 315° |
| 2026-04-25 10:44 | 38.26366 | 27.06638 | 35998 ft | 435 kts | 315° |
| 2026-04-25 10:44 | 38.30938 | 27.01552 | 36004 ft | 436 kts | 315° |
| 2026-04-25 10:45 | 38.35492 | 26.96507 | 36000 ft | 437 kts | 316° |
| 2026-04-25 10:45 | 38.40107 | 26.91422 | 35996 ft | 438 kts | 316° |
| 2026-04-25 10:46 | 38.44733 | 26.86314 | 35995 ft | 439 kts | 316° |
| 2026-04-25 10:46 | 38.49337 | 26.81215 | 36002 ft | 438 kts | 316° |
| 2026-04-25 10:47 | 38.53920 | 26.76128 | 35996 ft | 439 kts | 316° |
| 2026-04-25 10:47 | 38.58536 | 26.70995 | 36004 ft | 439 kts | 317° |
| 2026-04-25 10:48 | 38.63123 | 26.65886 | 36002 ft | 439 kts | 317° |
| 2026-04-25 10:48 | 38.67737 | 26.60738 | 36009 ft | 439 kts | 317° |
| 2026-04-25 10:49 | 38.72318 | 26.55617 | 36009 ft | 439 kts | 317° |
| 2026-04-25 10:49 | 38.76846 | 26.50629 | 36016 ft | 439 kts | 318° |
| 2026-04-25 10:50 | 38.81508 | 26.45527 | 36015 ft | 440 kts | 318° |
| 2026-04-25 10:50 | 38.86166 | 26.40414 | 36021 ft | 440 kts | 318° |
| 2026-04-25 10:51 | 38.90788 | 26.35320 | 36018 ft | 441 kts | 319° |
| 2026-04-25 10:51 | 38.95459 | 26.30161 | 36025 ft | 441 kts | 319° |
| 2026-04-25 10:52 | 39.00097 | 26.25027 | 36023 ft | 441 kts | 319° |
| 2026-04-25 10:52 | 39.04733 | 26.19886 | 36032 ft | 441 kts | 319° |
| 2026-04-25 10:53 | 39.09401 | 26.14700 | 36022 ft | 442 kts | 319° |
| 2026-04-25 10:53 | 39.14030 | 26.09549 | 36026 ft | 442 kts | 319° |
| 2026-04-25 10:54 | 39.18685 | 26.04360 | 36029 ft | 441 kts | 319° |
| 2026-04-25 10:54 | 39.23330 | 25.99172 | 36031 ft | 441 kts | 319° |
| 2026-04-25 10:55 | 39.27956 | 25.93996 | 36024 ft | 440 kts | 319° |
| 2026-04-25 10:55 | 39.32556 | 25.88840 | 36030 ft | 439 kts | 319° |
| 2026-04-25 10:56 | 39.37166 | 25.83663 | 36035 ft | 437 kts | 319° |
| 2026-04-25 10:56 | 39.41758 | 25.78496 | 36036 ft | 436 kts | 319° |
| 2026-04-25 10:57 | 39.46318 | 25.73357 | 36038 ft | 436 kts | 319° |
| 2026-04-25 10:57 | 39.50895 | 25.68190 | 36041 ft | 435 kts | 319° |
| 2026-04-25 10:58 | 39.55469 | 25.63016 | 36038 ft | 436 kts | 319° |
| 2026-04-25 10:58 | 39.60007 | 25.57873 | 36046 ft | 436 kts | 319° |
| 2026-04-25 10:59 | 39.64597 | 25.52663 | 36046 ft | 437 kts | 319° |
| 2026-04-25 10:59 | 39.69175 | 25.47456 | 36052 ft | 437 kts | 319° |
| 2026-04-25 11:00 | 39.73729 | 25.42267 | 36047 ft | 438 kts | 319° |
| 2026-04-25 11:00 | 39.78320 | 25.37026 | 36051 ft | 438 kts | 319° |
| 2026-04-25 11:01 | 39.82905 | 25.31783 | 36052 ft | 438 kts | 319° |
| 2026-04-25 11:01 | 39.87460 | 25.26564 | 36052 ft | 438 kts | 319° |
| 2026-04-25 11:02 | 39.92030 | 25.21319 | 36048 ft | 438 kts | 319° |
| 2026-04-25 11:02 | 39.96611 | 25.16050 | 36042 ft | 438 kts | 319° |
| 2026-04-25 11:03 | 40.01179 | 25.10787 | 36051 ft | 437 kts | 319° |
| 2026-04-25 11:03 | 40.05707 | 25.05560 | 36046 ft | 436 kts | 320° |
| 2026-04-25 11:04 | 40.10258 | 25.00298 | 36054 ft | 435 kts | 320° |
| 2026-04-25 11:04 | 40.14788 | 24.95049 | 36054 ft | 434 kts | 320° |
| 2026-04-25 11:05 | 40.19287 | 24.89827 | 36069 ft | 433 kts | 320° |
| 2026-04-25 11:05 | 40.23786 | 24.84596 | 36063 ft | 433 kts | 320° |
| 2026-04-25 11:06 | 40.28294 | 24.79344 | 36064 ft | 433 kts | 320° |
| 2026-04-25 11:06 | 40.32800 | 24.74085 | 36059 ft | 433 kts | 320° |
| 2026-04-25 11:07 | 40.37274 | 24.68853 | 36068 ft | 434 kts | 320° |
| 2026-04-25 11:07 | 40.41788 | 24.63565 | 36064 ft | 434 kts | 320° |
| 2026-04-25 11:08 | 40.46276 | 24.58298 | 36069 ft | 434 kts | 320° |
| 2026-04-25 11:08 | 40.50798 | 24.52979 | 36061 ft | 435 kts | 320° |
| 2026-04-25 11:09 | 40.55313 | 24.47660 | 36067 ft | 435 kts | 320° |
| 2026-04-25 11:09 | 40.59800 | 24.42364 | 36061 ft | 436 kts | 320° |
| 2026-04-25 11:10 | 40.64314 | 24.37025 | 36062 ft | 436 kts | 320° |
| 2026-04-25 11:10 | 40.68829 | 24.31675 | 36055 ft | 436 kts | 320° |
| 2026-04-25 11:11 | 40.73340 | 24.26320 | 36057 ft | 435 kts | 320° |
| 2026-04-25 11:11 | 40.77819 | 24.20993 | 36050 ft | 435 kts | 320° |
| 2026-04-25 11:12 | 40.82296 | 24.15659 | 36059 ft | 435 kts | 320° |
| 2026-04-25 11:12 | 40.86792 | 24.10291 | 36048 ft | 436 kts | 320° |
| 2026-04-25 11:13 | 40.91291 | 24.04908 | 36057 ft | 435 kts | 320° |
| 2026-04-25 11:13 | 40.95783 | 23.99525 | 36044 ft | 435 kts | 320° |
| 2026-04-25 11:14 | 41.00269 | 23.94138 | 36039 ft | 435 kts | 320° |
| 2026-04-25 11:14 | 41.04730 | 23.88770 | 36040 ft | 434 kts | 320° |
| 2026-04-25 11:15 | 41.09208 | 23.83373 | 36038 ft | 433 kts | 320° |
| 2026-04-25 11:15 | 41.13640 | 23.78020 | 36042 ft | 432 kts | 320° |
| 2026-04-25 11:16 | 41.20317 | 23.69938 | 36164 ft | 437 kts | 320° |
| 2026-04-25 11:16 | 41.22570 | 23.67205 | 36358 ft | 437 kts | 320° |
| 2026-04-25 11:16 | 41.24824 | 23.64467 | 36626 ft | 435 kts | 320° |
| 2026-04-25 11:17 | 41.27032 | 23.61783 | 36845 ft | 435 kts | 320° |
| 2026-04-25 11:17 | 41.29268 | 23.59063 | 37016 ft | 436 kts | 320° |
| 2026-04-25 11:17 | 41.31514 | 23.56328 | 37189 ft | 436 kts | 320° |
| 2026-04-25 11:17 | 41.33753 | 23.53599 | 37387 ft | 435 kts | 320° |
| 2026-04-25 11:18 | 41.35986 | 23.50874 | 37567 ft | 435 kts | 320° |
| 2026-04-25 11:18 | 41.38191 | 23.48182 | 37734 ft | 435 kts | 320° |
| 2026-04-25 11:18 | 41.40527 | 23.45637 | 37884 ft | 433 kts | 327° |
| 2026-04-25 11:18 | 41.43107 | 23.43609 | 38053 ft | 429 kts | 335° |
| 2026-04-25 11:19 | 41.48515 | 23.40128 | 38050 ft | 431 kts | 336° |
| 2026-04-25 11:19 | 41.53919 | 23.36688 | 38048 ft | 428 kts | 336° |
| 2026-04-25 11:20 | 41.59254 | 23.33235 | 38047 ft | 426 kts | 336° |
| 2026-04-25 11:20 | 41.64569 | 23.29759 | 38039 ft | 424 kts | 336° |
| 2026-04-25 11:21 | 41.69849 | 23.26293 | 38051 ft | 422 kts | 336° |
| 2026-04-25 11:21 | 41.75109 | 23.22833 | 38054 ft | 421 kts | 336° |
| 2026-04-25 11:22 | 41.79496 | 23.19945 | 38055 ft | 422 kts | 336° |
| 2026-04-25 11:22 | 41.85649 | 23.15885 | 38061 ft | 423 kts | 336° |
| 2026-04-25 11:23 | 41.90063 | 23.12968 | 38057 ft | 425 kts | 336° |
| 2026-04-25 11:23 | 41.95352 | 23.09465 | 38059 ft | 426 kts | 336° |
| 2026-04-25 11:24 | 42.00704 | 23.05915 | 38057 ft | 428 kts | 336° |
| 2026-04-25 11:24 | 42.06039 | 23.02369 | 38052 ft | 429 kts | 336° |
| 2026-04-25 11:25 | 42.11380 | 22.98812 | 38056 ft | 431 kts | 336° |
| 2026-04-25 11:25 | 42.16773 | 22.95214 | 38048 ft | 431 kts | 336° |
| 2026-04-25 11:26 | 42.22135 | 22.91629 | 38051 ft | 431 kts | 336° |
| 2026-04-25 11:26 | 42.27501 | 22.88036 | 38045 ft | 430 kts | 336° |
| 2026-04-25 11:27 | 42.32861 | 22.84436 | 38047 ft | 429 kts | 336° |
| 2026-04-25 11:27 | 42.37291 | 22.81454 | 38049 ft | 427 kts | 336° |
| 2026-04-25 11:28 | 42.43502 | 22.77265 | 38050 ft | 425 kts | 336° |
| 2026-04-25 11:28 | 42.48761 | 22.73712 | 38056 ft | 424 kts | 336° |
| 2026-04-25 11:29 | 42.54044 | 22.70135 | 38065 ft | 422 kts | 336° |
| 2026-04-25 11:29 | 42.59275 | 22.66587 | 38064 ft | 421 kts | 336° |
| 2026-04-25 11:30 | 42.64518 | 22.63023 | 38044 ft | 420 kts | 336° |
| 2026-04-25 11:30 | 42.69749 | 22.59458 | 38066 ft | 419 kts | 336° |
| 2026-04-25 11:31 | 42.72323 | 22.57702 | 37880 ft | 419 kts | 335° |
| 2026-04-25 11:31 | 42.74932 | 22.55920 | 37973 ft | 416 kts | 335° |
| 2026-04-25 11:31 | 42.80102 | 22.52384 | 38065 ft | 414 kts | 335° |
| 2026-04-25 11:32 | 42.85269 | 22.48845 | 38059 ft | 415 kts | 335° |
| 2026-04-25 11:32 | 42.90401 | 22.45353 | 38080 ft | 415 kts | 335° |
| 2026-04-25 11:33 | 42.95582 | 22.41836 | 38076 ft | 414 kts | 335° |
| 2026-04-25 11:33 | 43.00727 | 22.38332 | 38083 ft | 415 kts | 335° |
| 2026-04-25 11:34 | 43.05886 | 22.34810 | 38061 ft | 415 kts | 335° |
| 2026-04-25 11:34 | 43.11062 | 22.31268 | 38065 ft | 415 kts | 335° |
| 2026-04-25 11:35 | 43.16245 | 22.27716 | 38070 ft | 416 kts | 335° |
| 2026-04-25 11:35 | 43.21396 | 22.24177 | 38073 ft | 417 kts | 335° |
| 2026-04-25 11:36 | 43.26576 | 22.20612 | 38065 ft | 417 kts | 335° |
| 2026-04-25 11:36 | 43.31769 | 22.17031 | 38073 ft | 417 kts | 335° |
| 2026-04-25 11:37 | 43.36954 | 22.13449 | 38069 ft | 417 kts | 335° |
| 2026-04-25 11:37 | 43.42108 | 22.09881 | 38068 ft | 416 kts | 335° |
| 2026-04-25 11:38 | 43.47293 | 22.06286 | 38070 ft | 415 kts | 335° |
| 2026-04-25 11:38 | 43.52420 | 22.02722 | 38068 ft | 414 kts | 335° |
| 2026-04-25 11:39 | 43.57576 | 21.99133 | 38061 ft | 413 kts | 334° |
| 2026-04-25 11:39 | 43.62689 | 21.95567 | 38064 ft | 413 kts | 334° |
| 2026-04-25 11:40 | 43.67821 | 21.91980 | 38048 ft | 412 kts | 334° |
| 2026-04-25 11:40 | 43.72915 | 21.88414 | 38062 ft | 411 kts | 334° |
| 2026-04-25 11:41 | 43.78007 | 21.84841 | 38064 ft | 411 kts | 334° |
| 2026-04-25 11:41 | 43.83118 | 21.81249 | 38054 ft | 412 kts | 334° |
| 2026-04-25 11:42 | 43.88211 | 21.77662 | 38062 ft | 411 kts | 334° |
| 2026-04-25 11:42 | 43.93335 | 21.74046 | 38056 ft | 411 kts | 334° |
| 2026-04-25 11:43 | 43.98418 | 21.70452 | 38060 ft | 411 kts | 334° |
| 2026-04-25 11:43 | 44.03525 | 21.66834 | 38058 ft | 411 kts | 333° |
| 2026-04-25 11:44 | 44.08605 | 21.63230 | 38061 ft | 412 kts | 333° |
| 2026-04-25 11:44 | 44.13735 | 21.59581 | 38058 ft | 412 kts | 333° |
| 2026-04-25 11:45 | 44.18818 | 21.55959 | 38053 ft | 412 kts | 333° |
| 2026-04-25 11:45 | 44.23929 | 21.52310 | 38054 ft | 413 kts | 333° |
| 2026-04-25 11:46 | 44.29029 | 21.48662 | 38056 ft | 413 kts | 333° |
| 2026-04-25 11:46 | 44.34157 | 21.44987 | 38053 ft | 413 kts | 333° |
| 2026-04-25 11:47 | 44.39244 | 21.41333 | 38050 ft | 413 kts | 333° |
| 2026-04-25 11:47 | 44.44342 | 21.37665 | 38049 ft | 412 kts | 333° |
| 2026-04-25 11:48 | 44.49454 | 21.33979 | 38046 ft | 412 kts | 333° |
| 2026-04-25 11:48 | 44.54563 | 21.30288 | 38044 ft | 412 kts | 332° |
| 2026-04-25 11:49 | 44.59636 | 21.26616 | 38046 ft | 411 kts | 332° |
| 2026-04-25 11:49 | 44.64733 | 21.22919 | 38042 ft | 411 kts | 332° |
| 2026-04-25 11:50 | 44.69776 | 21.19254 | 38044 ft | 410 kts | 332° |
| 2026-04-25 11:50 | 44.74855 | 21.15556 | 38039 ft | 410 kts | 332° |
| 2026-04-25 11:51 | 44.79909 | 21.11868 | 38042 ft | 410 kts | 332° |
| 2026-04-25 11:51 | 44.84993 | 21.08151 | 38038 ft | 409 kts | 332° |
| 2026-04-25 11:52 | 44.90018 | 21.04470 | 38037 ft | 409 kts | 332° |
| 2026-04-25 11:52 | 44.95074 | 21.00759 | 38038 ft | 409 kts | 332° |
| 2026-04-25 11:53 | 45.00129 | 20.97041 | 38034 ft | 408 kts | 332° |
| 2026-04-25 11:53 | 45.05153 | 20.93339 | 38036 ft | 408 kts | 332° |
| 2026-04-25 11:54 | 45.10169 | 20.89635 | 38035 ft | 408 kts | 331° |
| 2026-04-25 11:55 | 45.17711 | 20.84051 | 38035 ft | 408 kts | 331° |
| 2026-04-25 11:55 | 45.22744 | 20.80316 | 38036 ft | 408 kts | 331° |
| 2026-04-25 11:56 | 45.27775 | 20.76575 | 38036 ft | 407 kts | 331° |
| 2026-04-25 11:56 | 45.32780 | 20.72846 | 38034 ft | 407 kts | 331° |
| 2026-04-25 11:57 | 45.37802 | 20.69097 | 38038 ft | 407 kts | 330° |
| 2026-04-25 11:57 | 45.42822 | 20.65341 | 38032 ft | 407 kts | 330° |
| 2026-04-25 11:58 | 45.47845 | 20.61576 | 38029 ft | 407 kts | 330° |
| 2026-04-25 11:58 | 45.52861 | 20.57808 | 38032 ft | 407 kts | 330° |
| 2026-04-25 11:59 | 45.57858 | 20.54046 | 38034 ft | 407 kts | 330° |
| 2026-04-25 11:59 | 45.62854 | 20.50278 | 38032 ft | 407 kts | 330° |
| 2026-04-25 12:00 | 45.70365 | 20.44599 | 38019 ft | 407 kts | 330° |
| 2026-04-25 12:01 | 45.77879 | 20.38899 | 38028 ft | 407 kts | 330° |
| 2026-04-25 12:01 | 45.80383 | 20.36996 | 37889 ft | 409 kts | 329° |
| 2026-04-25 12:01 | 45.82871 | 20.35103 | 37589 ft | 406 kts | 329° |
| 2026-04-25 12:01 | 45.85345 | 20.33221 | 37305 ft | 398 kts | 329° |
| 2026-04-25 12:02 | 45.90200 | 20.29519 | 36770 ft | 394 kts | 329° |
| 2026-04-25 12:02 | 45.92624 | 20.27666 | 36517 ft | 395 kts | 329° |
| 2026-04-25 12:02 | 45.95064 | 20.25799 | 36261 ft | 396 kts | 329° |
| 2026-04-25 12:03 | 45.97503 | 20.23931 | 36008 ft | 397 kts | 329° |
| 2026-04-25 12:03 | 45.99917 | 20.22081 | 35755 ft | 398 kts | 329° |
| 2026-04-25 12:03 | 46.02351 | 20.20214 | 35516 ft | 398 kts | 329° |
| 2026-04-25 12:03 | 46.04802 | 20.18332 | 35278 ft | 399 kts | 329° |
| 2026-04-25 12:04 | 46.07260 | 20.16443 | 35022 ft | 400 kts | 329° |
| 2026-04-25 12:04 | 46.09725 | 20.14547 | 34780 ft | 400 kts | 329° |
| 2026-04-25 12:04 | 46.12162 | 20.12670 | 34543 ft | 401 kts | 329° |
| 2026-04-25 12:04 | 46.14625 | 20.10772 | 34307 ft | 401 kts | 329° |
| 2026-04-25 12:05 | 46.17098 | 20.08860 | 34102 ft | 402 kts | 329° |
| 2026-04-25 12:05 | 46.18728 | 20.07575 | 34058 ft | 402 kts | 328° |
| 2026-04-25 12:05 | 46.23629 | 20.03646 | 34023 ft | 403 kts | 328° |
| 2026-04-25 12:06 | 46.28536 | 19.99689 | 34014 ft | 403 kts | 328° |
| 2026-04-25 12:06 | 46.33416 | 19.95755 | 34011 ft | 403 kts | 328° |
| 2026-04-25 12:07 | 46.38330 | 19.91792 | 34008 ft | 403 kts | 328° |
| 2026-04-25 12:07 | 46.43211 | 19.87849 | 34011 ft | 403 kts | 328° |
| 2026-04-25 12:08 | 46.48115 | 19.83880 | 34008 ft | 403 kts | 328° |
| 2026-04-25 12:08 | 46.53016 | 19.79904 | 34009 ft | 403 kts | 328° |
| 2026-04-25 12:09 | 46.57888 | 19.75945 | 34004 ft | 403 kts | 327° |
| 2026-04-25 12:09 | 46.62780 | 19.71960 | 34006 ft | 402 kts | 327° |
| 2026-04-25 12:10 | 46.67655 | 19.67982 | 34002 ft | 402 kts | 327° |
| 2026-04-25 12:10 | 46.72541 | 19.63985 | 34004 ft | 402 kts | 327° |
| 2026-04-25 12:11 | 46.77390 | 19.60011 | 34000 ft | 401 kts | 327° |
| 2026-04-25 12:11 | 46.82259 | 19.56011 | 34001 ft | 401 kts | 327° |
| 2026-04-25 12:12 | 46.87128 | 19.52004 | 33994 ft | 400 kts | 327° |
| 2026-04-25 12:12 | 46.91953 | 19.48024 | 33999 ft | 400 kts | 327° |
| 2026-04-25 12:13 | 46.96802 | 19.44017 | 33997 ft | 399 kts | 327° |
| 2026-04-25 12:13 | 47.01621 | 19.40025 | 33995 ft | 399 kts | 327° |
| 2026-04-25 12:14 | 47.06478 | 19.35993 | 34000 ft | 399 kts | 327° |
| 2026-04-25 12:14 | 47.11300 | 19.31982 | 34000 ft | 399 kts | 327° |
| 2026-04-25 12:15 | 47.16104 | 19.27978 | 33995 ft | 399 kts | 327° |
| 2026-04-25 12:15 | 47.20946 | 19.23933 | 33994 ft | 399 kts | 326° |
| 2026-04-25 12:16 | 47.25765 | 19.19899 | 33995 ft | 399 kts | 326° |
| 2026-04-25 12:16 | 47.30595 | 19.15824 | 33993 ft | 398 kts | 323° |
| 2026-04-25 12:17 | 47.34546 | 19.10350 | 33996 ft | 391 kts | 306° |
| 2026-04-25 12:17 | 47.36031 | 19.06997 | 33988 ft | 389 kts | 295° |
| 2026-04-25 12:17 | 47.37196 | 19.03384 | 33717 ft | 393 kts | 294° |
| 2026-04-25 12:18 | 47.38316 | 18.99751 | 33237 ft | 392 kts | 294° |
| 2026-04-25 12:18 | 47.39434 | 18.96086 | 32674 ft | 390 kts | 294° |
| 2026-04-25 12:18 | 47.40552 | 18.92437 | 32035 ft | 390 kts | 294° |
| 2026-04-25 12:18 | 47.41677 | 18.88793 | 31589 ft | 386 kts | 294° |
| 2026-04-25 12:19 | 47.43537 | 18.82798 | 30741 ft | 384 kts | 294° |
| 2026-04-25 12:19 | 47.45022 | 18.78027 | 30157 ft | 380 kts | 294° |
| 2026-04-25 12:19 | 47.46110 | 18.74528 | 29686 ft | 376 kts | 294° |
| 2026-04-25 12:20 | 47.47199 | 18.71022 | 29252 ft | 371 kts | 294° |
| 2026-04-25 12:20 | 47.48268 | 18.67574 | 28827 ft | 367 kts | 294° |
| 2026-04-25 12:20 | 47.49324 | 18.64163 | 28397 ft | 363 kts | 294° |
| 2026-04-25 12:20 | 47.50370 | 18.60781 | 27974 ft | 359 kts | 294° |
| 2026-04-25 12:21 | 47.51390 | 18.57479 | 27552 ft | 355 kts | 294° |
| 2026-04-25 12:21 | 47.52415 | 18.54154 | 27130 ft | 352 kts | 294° |
| 2026-04-25 12:21 | 47.53430 | 18.50859 | 26702 ft | 350 kts | 294° |
| 2026-04-25 12:21 | 47.54354 | 18.47530 | 26280 ft | 347 kts | 288° |
| 2026-04-25 12:22 | 47.55096 | 18.44178 | 25874 ft | 345 kts | 287° |
| 2026-04-25 12:22 | 47.55812 | 18.40785 | 25455 ft | 343 kts | 287° |
| 2026-04-25 12:22 | 47.56516 | 18.37403 | 25044 ft | 342 kts | 287° |
| 2026-04-25 12:22 | 47.57218 | 18.34040 | 24629 ft | 340 kts | 287° |
| 2026-04-25 12:23 | 47.57914 | 18.30719 | 24229 ft | 339 kts | 287° |
| 2026-04-25 12:23 | 47.58615 | 18.27383 | 23809 ft | 339 kts | 287° |
| 2026-04-25 12:23 | 47.59311 | 18.24080 | 23351 ft | 338 kts | 287° |
| 2026-04-25 12:23 | 47.60011 | 18.20760 | 22906 ft | 336 kts | 287° |
| 2026-04-25 12:24 | 47.60708 | 18.17453 | 22476 ft | 334 kts | 287° |
| 2026-04-25 12:24 | 47.61400 | 18.14166 | 22062 ft | 332 kts | 287° |
| 2026-04-25 12:24 | 47.62087 | 18.10901 | 21653 ft | 330 kts | 288° |
| 2026-04-25 12:24 | 47.62768 | 18.07656 | 21250 ft | 328 kts | 288° |
| 2026-04-25 12:25 | 47.63435 | 18.04479 | 20860 ft | 326 kts | 288° |
| 2026-04-25 12:25 | 47.64106 | 18.01271 | 20464 ft | 324 kts | 288° |
| 2026-04-25 12:25 | 47.64774 | 17.98077 | 20073 ft | 322 kts | 288° |
| 2026-04-25 12:25 | 47.65439 | 17.94895 | 19681 ft | 321 kts | 288° |
| 2026-04-25 12:26 | 47.66089 | 17.91774 | 19301 ft | 320 kts | 288° |
| 2026-04-25 12:26 | 47.66744 | 17.88629 | 18914 ft | 318 kts | 288° |
| 2026-04-25 12:26 | 47.67399 | 17.85476 | 18526 ft | 317 kts | 288° |
| 2026-04-25 12:26 | 47.68042 | 17.82375 | 18104 ft | 316 kts | 288° |
| 2026-04-25 12:27 | 47.68690 | 17.79250 | 17684 ft | 315 kts | 288° |
| 2026-04-25 12:27 | 47.69333 | 17.76142 | 17267 ft | 314 kts | 288° |
| 2026-04-25 12:27 | 47.69971 | 17.73050 | 16880 ft | 312 kts | 288° |
| 2026-04-25 12:27 | 47.70608 | 17.69963 | 16493 ft | 311 kts | 288° |
| 2026-04-25 12:28 | 47.71239 | 17.66897 | 16118 ft | 309 kts | 288° |
| 2026-04-25 12:28 | 47.71847 | 17.63881 | 15750 ft | 308 kts | 285° |
| 2026-04-25 12:28 | 47.72235 | 17.60738 | 15417 ft | 310 kts | 279° |
| 2026-04-25 12:28 | 47.72524 | 17.57533 | 15089 ft | 316 kts | 278° |
| 2026-04-25 12:29 | 47.72800 | 17.54270 | 14750 ft | 320 kts | 278° |
| 2026-04-25 12:29 | 47.73077 | 17.51001 | 14419 ft | 321 kts | 278° |
| 2026-04-25 12:29 | 47.73365 | 17.47688 | 14082 ft | 321 kts | 279° |
| 2026-04-25 12:29 | 47.73652 | 17.44445 | 13740 ft | 320 kts | 279° |
| 2026-04-25 12:30 | 47.73946 | 17.41163 | 13331 ft | 321 kts | 279° |
| 2026-04-25 12:30 | 47.74245 | 17.37849 | 12817 ft | 324 kts | 279° |
| 2026-04-25 12:30 | 47.74547 | 17.34517 | 12300 ft | 325 kts | 279° |
| 2026-04-25 12:30 | 47.74847 | 17.31188 | 11789 ft | 323 kts | 279° |
| 2026-04-25 12:31 | 47.75142 | 17.27917 | 11275 ft | 315 kts | 279° |
| 2026-04-25 12:31 | 47.75425 | 17.24762 | 10791 ft | 308 kts | 279° |
| 2026-04-25 12:31 | 47.75706 | 17.21629 | 10299 ft | 302 kts | 279° |
| 2026-04-25 12:31 | 47.75982 | 17.18557 | 9820 ft | 297 kts | 279° |
| 2026-04-25 12:32 | 47.76253 | 17.15532 | 9284 ft | 293 kts | 279° |
| 2026-04-25 12:32 | 47.76520 | 17.12548 | 8790 ft | 288 kts | 280° |
| 2026-04-25 12:32 | 47.77123 | 17.09797 | 8370 ft | 277 kts | 299° |
| 2026-04-25 12:32 | 47.78033 | 17.07301 | 7977 ft | 270 kts | 299° |
| 2026-04-25 12:33 | 47.78922 | 17.04881 | 7564 ft | 264 kts | 299° |
| 2026-04-25 12:33 | 47.79788 | 17.02508 | 7155 ft | 259 kts | 299° |
| 2026-04-25 12:33 | 47.80626 | 17.00196 | 6785 ft | 254 kts | 298° |
| 2026-04-25 12:33 | 47.81455 | 16.97895 | 6391 ft | 250 kts | 298° |
| 2026-04-25 12:34 | 47.82268 | 16.95628 | 5986 ft | 247 kts | 298° |
| 2026-04-25 12:34 | 47.83070 | 16.93383 | 5571 ft | 243 kts | 298° |
| 2026-04-25 12:34 | 47.83858 | 16.91173 | 5168 ft | 240 kts | 298° |
| 2026-04-25 12:34 | 47.84376 | 16.89718 | 4894 ft | 239 kts | 298° |
| 2026-04-25 12:35 | 47.85400 | 16.86837 | 4349 ft | 236 kts | 297° |
| 2026-04-25 12:35 | 47.86156 | 16.84704 | 4094 ft | 229 kts | 298° |
| 2026-04-25 12:35 | 47.86881 | 16.82660 | 4002 ft | 217 kts | 298° |
| 2026-04-25 12:35 | 47.87569 | 16.80713 | 3845 ft | 206 kts | 298° |
| 2026-04-25 12:36 | 47.88213 | 16.78895 | 3704 ft | 194 kts | 298° |
| 2026-04-25 12:36 | 47.88826 | 16.77159 | 3555 ft | 185 kts | 298° |
| 2026-04-25 12:36 | 47.89412 | 16.75502 | 3413 ft | 177 kts | 298° |
| 2026-04-25 12:36 | 47.89979 | 16.73895 | 3296 ft | 174 kts | 298° |
| 2026-04-25 12:37 | 47.90541 | 16.72304 | 3173 ft | 174 kts | 298° |
| 2026-04-25 12:37 | 47.91101 | 16.70709 | 3068 ft | 174 kts | 297° |
| 2026-04-25 12:37 | 47.91661 | 16.69113 | 3025 ft | 172 kts | 298° |
| 2026-04-25 12:37 | 47.92226 | 16.67529 | 2997 ft | 174 kts | 298° |
| 2026-04-25 12:38 | 47.92891 | 16.66087 | 2939 ft | 166 kts | 324° |
| 2026-04-25 12:38 | 47.93938 | 16.65423 | 2952 ft | 167 kts | 340° |
| 2026-04-25 12:38 | 47.95054 | 16.64951 | 2973 ft | 165 kts | 341° |
| 2026-04-25 12:38 | 47.96157 | 16.64514 | 2980 ft | 165 kts | 340° |
| 2026-04-25 12:39 | 47.97253 | 16.64057 | 2905 ft | 165 kts | 340° |
| 2026-04-25 12:39 | 47.98336 | 16.63602 | 2719 ft | 159 kts | 340° |
| 2026-04-25 12:39 | 47.99404 | 16.63148 | 2499 ft | 160 kts | 340° |
| 2026-04-25 12:39 | 48.00451 | 16.62707 | 2281 ft | 154 kts | 339° |
| 2026-04-25 12:40 | 48.01451 | 16.62282 | 2129 ft | 142 kts | 339° |
| 2026-04-25 12:40 | 48.02389 | 16.61882 | 1903 ft | 138 kts | 340° |
| 2026-04-25 12:40 | 48.03312 | 16.61489 | 1752 ft | 142 kts | 339° |
| 2026-04-25 12:40 | 48.04272 | 16.61080 | 1541 ft | 143 kts | 340° |
| 2026-04-25 12:41 | 48.05230 | 16.60675 | 1365 ft | 143 kts | 339° |
| 2026-04-25 12:41 | 48.06194 | 16.60266 | 1167 ft | 143 kts | 338° |
| 2026-04-25 12:41 | 48.07139 | 16.59867 | 965 ft | 140 kts | 337° |
| 2026-04-25 12:41 | 48.08067 | 16.59476 | 796 ft | 140 kts | 336° |
| 2026-04-25 12:42 | 48.09009 | 16.59074 | 629 ft | 140 kts | 338° |
| 2026-04-25 12:42 | 48.09319 | 16.58944 | 616 ft | 133 kts | 339° |
| 2026-04-25 12:42 | 48.10275 | 16.58539 | 614 ft | 37 kts | 343° |
| 2026-04-25 12:42 | 48.10418 | 16.58372 | 614 ft | 18 kts | 302° |
| 2026-04-25 12:43 | 48.10466 | 16.58247 | 620 ft | 13 kts | 299° |
| 2026-04-25 12:43 | 48.10526 | 16.58154 | 617 ft | 12 kts | 336° |
| 2026-04-25 12:43 | 48.10741 | 16.58062 | 619 ft | 23 kts | 344° |
| 2026-04-25 12:44 | 48.10913 | 16.57990 | 609 ft | 28 kts | 344° |
| 2026-04-25 12:44 | 48.11078 | 16.57915 | 616 ft | 16 kts | 332° |
| 2026-04-25 12:44 | 48.11188 | 16.57621 | 619 ft | 21 kts | 296° |
| 2026-04-25 12:45 | 48.11260 | 16.57399 | 613 ft | 26 kts | 296° |
| 2026-04-25 12:45 | 48.11347 | 16.57133 | 615 ft | 30 kts | 296° |
| 2026-04-25 12:45 | 48.11550 | 16.56510 | 618 ft | 34 kts | 296° |
| 2026-04-25 12:46 | 48.11652 | 16.56199 | 622 ft | 32 kts | 296° |
| 2026-04-25 12:46 | 48.11731 | 16.55954 | 618 ft | 19 kts | 296° |
| 2026-04-25 12:46 | 48.11782 | 16.55842 | 614 ft | 9 kts | 337° |
| 2026-04-25 12:46 | 48.11841 | 16.55862 | 616 ft | 9 kts | 26° |
| 2026-04-25 12:47 | 48.11895 | 16.55902 | 618 ft | 9 kts | 26° |
| 2026-04-25 12:47 | 48.11945 | 16.55941 | 614 ft | 6 kts | 44° |
| 2026-04-25 12:47 | 48.11938 | 16.55995 | 621 ft | 6 kts | 137° |
| 2026-04-25 12:47 | 48.11909 | 16.56015 | 614 ft | 2 kts | 160° |
| 2026-04-25 12:48 | 48.11900 | 16.56020 | 618 ft | 0 kts | 160° |